createdAt,value
2023-02-18T00:01:37.947Z,99932.16
2023-02-18T00:04:05.426Z,99928.69
2023-02-18T00:06:35.558Z,99927.56
2023-02-18T00:09:05.063Z,99932.47
2023-02-18T00:11:35.275Z,99929.31
2023-02-18T00:14:04.650Z,99917.00
2023-02-18T00:16:32.540Z,99923.81
2023-02-18T00:19:05.395Z,99916.50
2023-02-18T00:21:34.578Z,99913.44
2023-02-18T00:24:02.744Z,99917.94
2023-02-18T00:26:30.316Z,99904.56
2023-02-18T00:28:57.821Z,99903.28
2023-02-18T00:31:31.235Z,99905.03
2023-02-18T00:34:01.168Z,99894.25
2023-02-18T00:36:29.246Z,99905.03
2023-02-18T00:38:59.467Z,99893.38
2023-02-18T00:41:29.221Z,99881.25
2023-02-18T00:43:57.623Z,99885.28
2023-02-18T00:46:25.896Z,99885.72
2023-02-18T00:48:54.877Z,99891.53
2023-02-18T00:51:23.081Z,99881.34
2023-02-18T00:53:50.567Z,99883.59
2023-02-18T00:56:18.345Z,99883.38
2023-02-18T00:58:45.957Z,99879.50
2023-02-18T01:01:13.845Z,99877.72
2023-02-18T01:03:42.898Z,99879.53
2023-02-18T01:06:12.134Z,99870.38
2023-02-18T01:08:40.840Z,99859.09
2023-02-18T01:11:10.602Z,99854.91
2023-02-18T01:13:38.556Z,99848.56
2023-02-18T01:16:08.593Z,99842.47
2023-02-18T01:18:37.070Z,99824.09
2023-02-18T01:21:08.661Z,99823.59
2023-02-18T01:23:38.497Z,99811.97
2023-02-18T01:26:06.331Z,99822.03
2023-02-18T01:28:34.037Z,99808.59
2023-02-18T01:31:09.399Z,99815.22
2023-02-18T01:33:37.183Z,99804.34
2023-02-18T01:36:05.563Z,99806.78
2023-02-18T01:38:33.168Z,99798.63
2023-02-18T01:41:01.821Z,99795.84
2023-02-18T01:43:29.640Z,99799.53
2023-02-18T01:46:08.977Z,99788.53
2023-02-18T01:48:46.211Z,99784.13
2023-02-18T01:51:17.753Z,99776.13
2023-02-18T01:53:56.868Z,99773.47
2023-02-18T01:56:28.904Z,99770.16
2023-02-18T01:59:00.368Z,99767.50
2023-02-18T02:01:28.863Z,99763.81
2023-02-18T02:03:56.296Z,99755.97
2023-02-18T02:06:26.218Z,99751.31
2023-02-18T02:08:59.701Z,99752.56
2023-02-18T02:11:30.047Z,99760.78
2023-02-18T02:14:00.510Z,99743.72
2023-02-18T02:16:49.176Z,99748.97
2023-02-18T02:19:42.704Z,99740.66
2023-02-18T02:22:28.451Z,99737.22
2023-02-18T02:25:08.073Z,99735.50
2023-02-18T02:27:44.250Z,99721.59
2023-02-18T02:30:30.150Z,99727.66
2023-02-18T02:33:28.893Z,99726.88
2023-02-18T02:35:59.439Z,99730.25
2023-02-18T02:38:34.086Z,99729.75
2023-02-18T02:41:18.470Z,99726.34
2023-02-18T02:44:07.032Z,99727.91
2023-02-18T02:46:51.343Z,99733.88
2023-02-18T02:49:38.023Z,99722.75
2023-02-18T02:52:12.156Z,99719.09
2023-02-18T02:54:40.213Z,99697.69
2023-02-18T02:57:13.882Z,99706.97
2023-02-18T02:59:59.467Z,99696.25
2023-02-18T03:02:46.557Z,99688.72
2023-02-18T03:06:07.790Z,99680.78
2023-02-18T03:08:52.659Z,99678.19
2023-02-18T03:11:20.275Z,99674.38
2023-02-18T03:13:53.663Z,99687.41
2023-02-18T03:16:36.673Z,99699.19
2023-02-18T03:19:16.743Z,99676.03
2023-02-18T03:21:59.030Z,99675.97
2023-02-18T03:24:34.845Z,99673.97
2023-02-18T03:27:15.453Z,99655.06
2023-02-18T03:29:46.451Z,99655.34
2023-02-18T03:32:18.478Z,99648.75
2023-02-18T03:34:50.993Z,99634.28
2023-02-18T03:37:19.945Z,99640.16
2023-02-18T03:39:56.151Z,99637.66
2023-02-18T03:42:28.740Z,99637.44
2023-02-18T03:44:56.583Z,99625.69
2023-02-18T03:47:25.260Z,99619.13
2023-02-18T03:49:52.743Z,99624.06
2023-02-18T03:52:20.240Z,99622.47
2023-02-18T03:54:47.907Z,99614.53
2023-02-18T03:57:15.369Z,99608.28
2023-02-18T03:59:42.860Z,99619.88
2023-02-18T04:02:10.320Z,99608.22
2023-02-18T04:04:37.866Z,99601.53
2023-02-18T04:07:05.850Z,99589.28
2023-02-18T04:09:33.377Z,99589.22
2023-02-18T04:12:00.843Z,99590.94
2023-02-18T04:14:28.493Z,99574.56
2023-02-18T04:16:55.982Z,99598.06
2023-02-18T04:19:23.468Z,99576.84
2023-02-18T04:21:51.206Z,99583.47
2023-02-18T04:24:18.612Z,99576.53
2023-02-18T04:26:46.265Z,99567.00
2023-02-18T04:29:13.721Z,99564.88
2023-02-18T04:31:41.366Z,99575.50
2023-02-18T04:34:08.974Z,99547.97
2023-02-18T04:36:36.513Z,99548.88
2023-02-18T04:39:04.738Z,99547.84
2023-02-18T04:41:32.224Z,99551.03
2023-02-18T04:44:00.729Z,99541.09
2023-02-18T04:46:28.689Z,99539.09
2023-02-18T04:48:56.106Z,99541.78
2023-02-18T04:51:24.171Z,99546.81
2023-02-18T04:53:51.620Z,99543.38
2023-02-18T04:56:19.094Z,99530.16
2023-02-18T04:58:46.994Z,99542.00
2023-02-18T05:01:14.562Z,99539.78
2023-02-18T05:03:42.207Z,99526.19
2023-02-18T05:06:10.031Z,99531.34
2023-02-18T05:08:37.870Z,99518.84
2023-02-18T05:11:07.329Z,99519.84
2023-02-18T05:13:34.977Z,99523.69
2023-02-18T05:16:02.740Z,99529.09
2023-02-18T05:18:30.238Z,99517.63
2023-02-18T05:20:57.710Z,99511.72
2023-02-18T05:23:26.074Z,99506.00
2023-02-18T05:25:55.001Z,99503.84
2023-02-18T05:28:22.839Z,99511.47
2023-02-18T05:30:50.396Z,99492.50
2023-02-18T05:33:17.917Z,99489.41
2023-02-18T05:35:45.442Z,99490.63
2023-02-18T05:38:12.882Z,99488.97
2023-02-18T05:40:40.810Z,99470.63
2023-02-18T05:43:08.213Z,99479.25
2023-02-18T05:45:36.260Z,99468.88
2023-02-18T05:48:03.873Z,99476.22
2023-02-18T05:50:31.755Z,99458.03
2023-02-18T05:52:59.389Z,99452.44
2023-02-18T05:55:27.051Z,99446.41
2023-02-18T05:57:54.605Z,99440.56
2023-02-18T06:00:22.191Z,99449.81
2023-02-18T06:02:51.167Z,99436.00
2023-02-18T06:05:18.794Z,99443.78
2023-02-18T06:07:46.213Z,99431.56
2023-02-18T06:10:13.819Z,99432.91
2023-02-18T06:12:41.394Z,99431.44
2023-02-18T06:15:09.095Z,99426.03
2023-02-18T06:17:36.695Z,99417.03
2023-02-18T06:20:04.518Z,99420.13
2023-02-18T06:22:32.103Z,99421.56
2023-02-18T06:24:59.541Z,99413.06
2023-02-18T06:27:27.179Z,99411.91
2023-02-18T06:29:54.622Z,99414.09
2023-02-18T06:32:22.361Z,99408.53
2023-02-18T06:34:49.873Z,99409.53
2023-02-18T06:37:17.324Z,99401.03
2023-02-18T06:39:44.846Z,99398.06
2023-02-18T06:42:13.391Z,99401.31
2023-02-18T06:44:42.012Z,99391.03
2023-02-18T06:47:09.464Z,99384.25
2023-02-18T06:49:37.284Z,99399.41
2023-02-18T06:52:05.814Z,99387.03
2023-02-18T06:54:34.510Z,99383.81
2023-02-18T06:57:02.049Z,99375.84
2023-02-18T06:59:29.501Z,99370.97
2023-02-18T07:01:56.941Z,99369.78
2023-02-18T07:04:24.471Z,99356.53
2023-02-18T07:06:51.964Z,99349.06
2023-02-18T07:09:19.529Z,99350.97
2023-02-18T07:11:46.994Z,99345.66
2023-02-18T07:14:14.430Z,99344.78
2023-02-18T07:16:42.140Z,99343.34
2023-02-18T07:19:09.843Z,99329.25
2023-02-18T07:21:37.432Z,99326.97
2023-02-18T07:24:05.296Z,99335.97
2023-02-18T07:26:32.805Z,99319.91
2023-02-18T07:29:00.392Z,99307.75
2023-02-18T07:31:28.160Z,99319.38
2023-02-18T07:33:57.293Z,99313.72
2023-02-18T07:36:24.927Z,99306.50
2023-02-18T07:38:52.392Z,99299.19
2023-02-18T07:41:22.539Z,99297.69
2023-02-18T07:43:50.499Z,99291.03
2023-02-18T07:46:19.433Z,99284.09
2023-02-18T07:48:47.143Z,99285.56
2023-02-18T07:51:14.630Z,99271.06
2023-02-18T07:53:42.231Z,99276.91
2023-02-18T07:56:10.061Z,99268.44
2023-02-18T07:58:39.076Z,99259.63
2023-02-18T08:01:08.879Z,99267.56
2023-02-18T08:03:36.548Z,99264.88
2023-02-18T08:06:05.966Z,99268.13
2023-02-18T08:08:36.723Z,99263.31
2023-02-18T08:11:18.506Z,99266.63
2023-02-18T08:13:47.527Z,99244.03
2023-02-18T08:16:16.787Z,99252.00
2023-02-18T08:18:44.938Z,99235.38
2023-02-18T08:21:12.404Z,99234.91
2023-02-18T08:23:40.318Z,99225.94
2023-02-18T08:26:08.173Z,99224.53
2023-02-18T08:28:43.549Z,99233.59
2023-02-18T08:31:20.670Z,99223.50
2023-02-18T08:33:48.719Z,99215.53
2023-02-18T08:36:16.186Z,99223.13
2023-02-18T08:38:43.784Z,99209.31
2023-02-18T08:41:11.672Z,99197.38
2023-02-18T08:43:39.213Z,99196.59
2023-02-18T08:46:06.786Z,99190.78
2023-02-18T08:48:34.423Z,99178.31
2023-02-18T08:51:15.777Z,99179.72
2023-02-18T08:53:43.643Z,99178.31
2023-02-18T08:56:11.378Z,99173.19
2023-02-18T08:58:39.134Z,99167.19
2023-02-18T09:01:09.764Z,99160.28
2023-02-18T09:03:37.753Z,99166.06
2023-02-18T09:06:05.888Z,99153.75
2023-02-18T09:08:33.459Z,99142.97
2023-02-18T09:11:04.564Z,99145.84
2023-02-18T09:13:33.624Z,99144.38
2023-02-18T09:16:04.431Z,99140.47
2023-02-18T09:18:33.387Z,99139.59
2023-02-18T09:21:01.172Z,99135.50
2023-02-18T09:23:30.809Z,99115.94
2023-02-18T09:25:59.065Z,99118.72
2023-02-18T09:28:27.428Z,99105.81
2023-02-18T09:30:55.151Z,99111.81
2023-02-18T09:33:22.923Z,99096.75
2023-02-18T09:35:50.422Z,99079.78
2023-02-18T09:38:18.565Z,99090.31
2023-02-18T09:40:52.237Z,99079.63
2023-02-18T09:43:35.054Z,99082.75
2023-02-18T09:46:04.947Z,99071.41
2023-02-18T09:48:36.244Z,99089.75
2023-02-18T09:51:04.057Z,99061.00
2023-02-18T09:53:31.489Z,99054.91
2023-02-18T09:56:00.627Z,99063.34
2023-02-18T09:58:31.803Z,99048.97
2023-02-18T10:01:11.373Z,99035.50
2023-02-18T10:03:40.713Z,99016.97
2023-02-18T10:06:16.349Z,99011.31
2023-02-18T10:08:47.514Z,99012.38
2023-02-18T10:11:28.801Z,99008.38
2023-02-18T10:13:58.678Z,99020.84
2023-02-18T10:16:26.260Z,98993.22
2023-02-18T10:18:59.992Z,99017.41
2023-02-18T10:21:31.466Z,98995.28
2023-02-18T10:24:16.698Z,98983.94
2023-02-18T10:26:44.255Z,98985.25
2023-02-18T10:29:20.922Z,98988.41
2023-02-18T10:32:19.658Z,98969.50
2023-02-18T10:35:24.578Z,98964.75
2023-02-18T10:38:16.177Z,98960.41
2023-02-18T10:41:09.756Z,98957.72
2023-02-18T10:43:53.274Z,98961.81
2023-02-18T10:46:58.797Z,98961.06
2023-02-18T10:49:54.203Z,98955.91
2023-02-18T10:52:22.110Z,98953.75
2023-02-18T10:54:58.061Z,98949.59
2023-02-18T10:57:26.454Z,98950.88
2023-02-18T11:00:19.117Z,98932.09
2023-02-18T11:02:48.274Z,98936.41
2023-02-18T11:05:24.821Z,98925.91
2023-02-18T11:07:54.794Z,98942.50
2023-02-18T11:10:27.426Z,98928.25
2023-02-18T11:13:02.116Z,98928.16
2023-02-18T11:15:30.627Z,98917.34
2023-02-18T11:18:26.863Z,98917.53
2023-02-18T11:21:00.391Z,98938.34
2023-02-18T11:23:28.140Z,98919.53
2023-02-18T11:26:03.280Z,98911.78
2023-02-18T11:28:45.554Z,98914.16
2023-02-18T11:31:25.625Z,98896.88
2023-02-18T11:33:57.651Z,98888.78
2023-02-18T11:36:43.711Z,98890.41
2023-02-18T11:39:27.339Z,98889.84
2023-02-18T11:41:58.348Z,98887.06
2023-02-18T11:44:34.797Z,98876.44
2023-02-18T11:47:20.254Z,98874.56
2023-02-18T11:50:01.830Z,98855.94
2023-02-18T11:52:39.589Z,98847.38
2023-02-18T11:55:15.566Z,98857.50
2023-02-18T11:57:52.445Z,98846.78
2023-02-18T12:00:22.641Z,98853.28
2023-02-18T12:02:53.125Z,98840.13
2023-02-18T12:05:27.088Z,98843.06
2023-02-18T12:08:24.326Z,98824.03
2023-02-18T12:11:01.449Z,98826.50
2023-02-18T12:13:34.711Z,98822.88
2023-02-18T12:16:30.887Z,98812.22
2023-02-18T12:19:42.532Z,98802.00
2023-02-18T12:22:50.873Z,98821.03
2023-02-18T12:25:40.131Z,98806.63
2023-02-18T12:28:25.821Z,98809.34
2023-02-18T12:31:15.126Z,98812.31
2023-02-18T12:33:48.437Z,98817.91
2023-02-18T12:36:40.312Z,98824.25
2023-02-18T12:39:31.162Z,98816.44
2023-02-18T12:42:07.736Z,98806.59
2023-02-18T12:44:45.673Z,98827.66
2023-02-18T12:47:37.664Z,98816.44
2023-02-18T12:50:42.876Z,98821.13
2023-02-18T12:53:16.222Z,98791.31
2023-02-18T12:55:51.913Z,98801.19
2023-02-18T12:58:30.518Z,98805.47
2023-02-18T13:01:23.155Z,98798.38
2023-02-18T13:04:18.512Z,98802.53
2023-02-18T13:07:01.702Z,98780.47
2023-02-18T13:09:50.420Z,98770.38
2023-02-18T13:12:29.785Z,98786.91
2023-02-18T13:15:02.203Z,98791.06
2023-02-18T13:17:36.148Z,98782.28
2023-02-18T13:20:14.896Z,98780.88
2023-02-18T13:22:43.734Z,98773.66
2023-02-18T13:25:15.382Z,98767.28
2023-02-18T13:27:48.809Z,98775.34
2023-02-18T13:30:45.437Z,98755.09
2023-02-18T13:33:38.053Z,98767.66
2023-02-18T13:36:23.642Z,98749.06
2023-02-18T13:39:01.472Z,98759.16
2023-02-18T13:41:28.983Z,98759.16
2023-02-18T13:43:56.452Z,98753.81
2023-02-18T13:46:25.384Z,98750.53
2023-02-18T13:49:00.909Z,98745.41
2023-02-18T13:51:41.435Z,98744.28
2023-02-18T13:54:26.043Z,98748.50
2023-02-18T13:57:05.301Z,98741.53
2023-02-18T13:59:44.398Z,98730.28
2023-02-18T14:02:21.360Z,98731.75
2023-02-18T14:05:09.398Z,98731.88
2023-02-18T14:07:44.382Z,98728.59
2023-02-18T14:10:18.653Z,98729.16
2023-02-18T14:12:58.378Z,98731.09
2023-02-18T14:15:25.872Z,98728.72
2023-02-18T14:18:12.010Z,98726.09
2023-02-18T14:20:39.444Z,98725.75
2023-02-18T14:23:19.122Z,98718.81
2023-02-18T14:25:57.713Z,98713.88
2023-02-18T14:28:33.961Z,98712.97
2023-02-18T14:31:13.998Z,98714.69
2023-02-18T14:34:04.657Z,98712.28
2023-02-18T14:37:09.049Z,98709.44
2023-02-18T14:39:48.494Z,98715.28
2023-02-18T14:42:56.526Z,98712.78
2023-02-18T14:45:31.392Z,98716.13
2023-02-18T14:48:17.403Z,98693.28
2023-02-18T14:50:50.074Z,98701.00
2023-02-18T14:53:21.932Z,98713.41
2023-02-18T14:55:56.522Z,98700.94
2023-02-18T14:58:32.798Z,98694.00
2023-02-18T15:01:30.830Z,98693.28
2023-02-18T15:03:58.610Z,98684.50
2023-02-18T15:06:33.963Z,98673.13
2023-02-18T15:09:13.155Z,98686.88
2023-02-18T15:11:51.566Z,98680.81
2023-02-18T15:14:24.669Z,98660.66
2023-02-18T15:16:53.477Z,98675.16
2023-02-18T15:19:24.373Z,98658.34
2023-02-18T15:21:55.340Z,98664.78
2023-02-18T15:24:32.786Z,98665.09
2023-02-18T15:27:04.280Z,98663.19
2023-02-18T15:29:36.681Z,98633.75
2023-02-18T15:32:16.914Z,98643.72
2023-02-18T15:34:45.550Z,98653.81
2023-02-18T15:37:15.157Z,98662.00
2023-02-18T15:39:43.891Z,98648.00
2023-02-18T15:42:20.316Z,98655.03
2023-02-18T15:44:51.142Z,98642.44
2023-02-18T15:47:20.194Z,98655.25
2023-02-18T15:49:54.126Z,98648.75
2023-02-18T15:52:32.002Z,98639.34
2023-02-18T15:55:15.865Z,98616.97
2023-02-18T15:57:43.732Z,98624.94
2023-02-18T16:00:20.238Z,98626.22
2023-02-18T16:03:05.014Z,98627.41
2023-02-18T16:05:38.317Z,98632.88
2023-02-18T16:08:14.057Z,98617.03
2023-02-18T16:10:51.285Z,98627.66
2023-02-18T16:13:19.685Z,98633.06
2023-02-18T16:15:50.572Z,98616.38
2023-02-18T16:18:42.623Z,98617.25
2023-02-18T16:21:19.205Z,98598.38
2023-02-18T16:23:56.548Z,98602.75
2023-02-18T16:26:43.653Z,98594.31
2023-02-18T16:29:16.002Z,98598.59
2023-02-18T16:31:43.920Z,98590.84
2023-02-18T16:34:11.431Z,98588.81
2023-02-18T16:36:59.035Z,98576.78
2023-02-18T16:39:29.253Z,98591.81
2023-02-18T16:41:59.263Z,98580.38
2023-02-18T16:44:26.790Z,98579.28
2023-02-18T16:46:54.247Z,98578.03
2023-02-18T16:49:21.848Z,98574.78
2023-02-18T16:51:49.365Z,98556.72
2023-02-18T16:54:16.850Z,98567.25
2023-02-18T16:56:44.510Z,98558.69
2023-02-18T16:59:12.096Z,98564.41
2023-02-18T17:01:44.981Z,98570.09
2023-02-18T17:04:18.268Z,98555.06
2023-02-18T17:06:46.481Z,98562.34
2023-02-18T17:09:17.100Z,98550.03
2023-02-18T17:11:47.506Z,98548.97
2023-02-18T17:14:19.937Z,98533.28
2023-02-18T17:16:49.136Z,98534.91
2023-02-18T17:19:17.203Z,98541.66
2023-02-18T17:21:46.476Z,98528.81
2023-02-18T17:24:18.372Z,98530.78
2023-02-18T17:26:45.825Z,98532.41
2023-02-18T17:29:13.971Z,98529.03
2023-02-18T17:31:45.147Z,98524.78
2023-02-18T17:34:19.528Z,98530.00
2023-02-18T17:36:47.283Z,98521.28
2023-02-18T17:39:17.463Z,98521.72
2023-02-18T17:41:45.177Z,98517.25
2023-02-18T17:44:16.760Z,98526.63
2023-02-18T17:46:44.695Z,98514.09
2023-02-18T17:49:15.137Z,98521.72
2023-02-18T17:51:43.344Z,98510.03
2023-02-18T17:54:16.517Z,98517.78
2023-02-18T17:56:44.188Z,98513.63
2023-02-18T17:59:12.059Z,98504.06
2023-02-18T18:01:40.073Z,98520.31
2023-02-18T18:04:19.147Z,98501.56
2023-02-18T18:06:47.675Z,98524.00
2023-02-18T18:09:15.232Z,98518.22
2023-02-18T18:11:42.899Z,98506.41
2023-02-18T18:14:16.081Z,98517.78
2023-02-18T18:16:43.695Z,98503.28
2023-02-18T18:19:11.198Z,98504.81
2023-02-18T18:21:38.900Z,98504.41
2023-02-18T18:24:06.756Z,98508.09
2023-02-18T18:26:34.178Z,98509.88
2023-02-18T18:29:01.987Z,98490.91
2023-02-18T18:31:32.717Z,98493.25
2023-02-18T18:34:01.440Z,98499.28
2023-02-18T18:36:29.005Z,98483.22
2023-02-18T18:38:56.606Z,98490.25
2023-02-18T18:41:24.205Z,98487.38
2023-02-18T18:43:51.870Z,98482.72
2023-02-18T18:46:19.459Z,98473.75
2023-02-18T18:48:47.084Z,98494.25
2023-02-18T18:51:22.012Z,98491.31
2023-02-18T18:53:49.549Z,98499.66
2023-02-18T18:56:17.092Z,98465.56
2023-02-18T18:58:44.635Z,98487.03
2023-02-18T19:01:22.770Z,98470.03
2023-02-18T19:03:50.422Z,98466.09
2023-02-18T19:06:18.071Z,98467.72
2023-02-18T19:08:47.994Z,98464.44
2023-02-18T19:11:16.974Z,98469.69
2023-02-18T19:13:45.827Z,98458.38
2023-02-18T19:16:22.379Z,98465.88
2023-02-18T19:18:50.439Z,98459.66
2023-02-18T19:21:18.061Z,98460.41
2023-02-18T19:23:45.815Z,98452.13
2023-02-18T19:26:16.207Z,98446.22
2023-02-18T19:28:45.089Z,98457.16
2023-02-18T19:31:13.141Z,98448.97
2023-02-18T19:33:41.476Z,98437.63
2023-02-18T19:36:11.178Z,98462.25
2023-02-18T19:38:39.443Z,98448.56
2023-02-18T19:41:12.770Z,98448.41
2023-02-18T19:43:42.894Z,98445.69
2023-02-18T19:46:17.042Z,98447.63
2023-02-18T19:48:49.604Z,98445.13
2023-02-18T19:51:17.387Z,98424.50
2023-02-18T19:53:46.133Z,98435.97
2023-02-18T19:56:13.745Z,98445.34
2023-02-18T19:58:41.763Z,98434.13
2023-02-18T20:01:13.855Z,98433.16
2023-02-18T20:03:41.785Z,98428.34
2023-02-18T20:06:17.502Z,98426.09
2023-02-18T20:08:46.139Z,98428.59
2023-02-18T20:11:13.884Z,98452.34
2023-02-18T20:13:42.198Z,98431.41
2023-02-18T20:16:11.718Z,98423.03
2023-02-18T20:18:39.356Z,98425.75
2023-02-18T20:21:09.765Z,98418.06
2023-02-18T20:23:37.569Z,98410.25
2023-02-18T20:26:12.989Z,98430.19
2023-02-18T20:28:41.019Z,98413.72
2023-02-18T20:31:12.373Z,98417.00
2023-02-18T20:33:42.306Z,98426.91
2023-02-18T20:36:12.296Z,98408.31
2023-02-18T20:38:39.929Z,98403.41
2023-02-18T20:41:14.484Z,98417.00
2023-02-18T20:43:42.097Z,98392.59
2023-02-18T20:46:13.290Z,98403.09
2023-02-18T20:48:40.916Z,98397.31
2023-02-18T20:51:13.956Z,98400.03
2023-02-18T20:53:42.656Z,98414.19
2023-02-18T20:56:10.677Z,98400.88
2023-02-18T20:58:38.941Z,98399.59
2023-02-18T21:01:12.629Z,98394.69
2023-02-18T21:03:41.273Z,98388.16
2023-02-18T21:06:15.576Z,98386.63
2023-02-18T21:08:45.393Z,98383.47
2023-02-18T21:11:22.447Z,98381.09
2023-02-18T21:13:51.779Z,98375.19
2023-02-18T21:16:21.370Z,98378.22
2023-02-18T21:18:49.861Z,98372.13
2023-02-18T21:21:19.920Z,98368.22
2023-02-18T21:23:47.723Z,98354.03
2023-02-18T21:26:19.122Z,98356.22
2023-02-18T21:28:48.785Z,98348.19
2023-02-18T21:31:21.011Z,98355.81
2023-02-18T21:33:51.050Z,98352.44
2023-02-18T21:36:19.594Z,98345.44
2023-02-18T21:38:56.096Z,98348.16
2023-02-18T21:41:24.534Z,98349.25
2023-02-18T21:43:52.300Z,98347.50
2023-02-18T21:46:24.006Z,98356.22
2023-02-18T21:49:06.236Z,98356.00
2023-02-18T21:51:57.795Z,98349.03
2023-02-18T21:54:27.255Z,98351.75
2023-02-18T21:56:56.408Z,98347.84
2023-02-18T21:59:29.223Z,98348.81
2023-02-18T22:02:00.409Z,98342.38
2023-02-18T22:04:33.290Z,98334.44
2023-02-18T22:07:01.540Z,98358.06
2023-02-18T22:09:29.738Z,98339.25
2023-02-18T22:11:57.740Z,98344.56
2023-02-18T22:14:25.648Z,98340.31
2023-02-18T22:16:53.281Z,98344.47
2023-02-18T22:19:20.897Z,98333.66
2023-02-18T22:21:49.010Z,98325.59
2023-02-18T22:24:18.112Z,98334.84
2023-02-18T22:26:46.852Z,98344.19
2023-02-18T22:29:15.413Z,98332.53
2023-02-18T22:31:43.508Z,98328.31
2023-02-18T22:34:11.407Z,98325.47
2023-02-18T22:36:39.211Z,98323.41
2023-02-18T22:39:07.713Z,98320.78
2023-02-18T22:41:35.651Z,98318.69
2023-02-18T22:44:07.692Z,98317.06
2023-02-18T22:46:36.794Z,98319.56
2023-02-18T22:49:06.616Z,98312.06
2023-02-18T22:51:40.546Z,98319.25
2023-02-18T22:54:15.732Z,98326.22
2023-02-18T22:56:44.802Z,98332.94
2023-02-18T22:59:14.334Z,98326.22
2023-02-18T23:01:44.947Z,98328.47
2023-02-18T23:04:15.265Z,98328.81
2023-02-18T23:06:45.160Z,98324.78
2023-02-18T23:09:24.144Z,98323.91
2023-02-18T23:11:58.165Z,98329.53
2023-02-18T23:14:28.343Z,98330.38
2023-02-18T23:17:12.999Z,98336.81
2023-02-18T23:19:48.826Z,98322.78
2023-02-18T23:22:28.376Z,98328.94
2023-02-18T23:25:00.363Z,98320.56
2023-02-18T23:27:28.549Z,98321.03
2023-02-18T23:29:56.643Z,98310.56
2023-02-18T23:32:24.629Z,98326.66
2023-02-18T23:34:52.063Z,98318.63
2023-02-18T23:37:40.635Z,98318.28
2023-02-18T23:40:09.649Z,98316.34
2023-02-18T23:42:37.118Z,98322.81
2023-02-18T23:45:04.912Z,98304.41
2023-02-18T23:47:32.494Z,98318.78
2023-02-18T23:50:00.001Z,98309.88
2023-02-18T23:52:27.484Z,98308.94
2023-02-18T23:54:54.932Z,98309.53
2023-02-18T23:57:22.401Z,98284.34
2023-02-18T23:59:49.915Z,98298.38
